Time;durP1;ratioP1;P1;durP2;ratioP2;P2;SDS_P1;SDS_P2;PMS_P1;PMS_P2;Temp;Humidity;BMP_temperature;BMP_pressure;BME280_temperature;BME280_humidity;BME280_pressure;Samples;Min_cycle;Max_cycle;Signal;HPM_P1;HPM_P2
2023/02/01 00:00:54;;;;;;;7.22;4.38;;;;;;;5.51;100.00;100893.09;5057447;28;20294;-77
2023/02/01 00:03:21;;;;;;;6.60;3.63;;;;;;;5.56;100.00;100885.00;5055685;28;20260;-75
2023/02/01 00:05:56;;;;;;;5.13;3.83;;;;;;;5.58;100.00;100884.06;5055529;28;20239;-75
2023/02/01 00:08:22;;;;;;;11.45;4.72;;;;;;;5.57;100.00;100893.00;5054395;28;20238;-75
2023/02/01 00:10:49;;;;;;;5.68;4.22;;;;;;;5.64;100.00;100888.44;5055608;28;20203;-76
2023/02/01 00:13:15;;;;;;;9.02;4.15;;;;;;;5.63;100.00;100886.66;5055290;28;20314;-77
2023/02/01 00:15:43;;;;;;;6.85;4.38;;;;;;;5.66;100.00;100889.28;5054683;28;20196;-76
2023/02/01 00:18:10;;;;;;;5.28;4.10;;;;;;;5.71;100.00;100891.88;5053846;28;20206;-77
2023/02/01 00:20:36;;;;;;;6.90;4.40;;;;;;;5.69;100.00;100896.38;5054760;28;20204;-77
2023/02/01 00:23:03;;;;;;;6.28;3.78;;;;;;;5.73;100.00;100893.59;5054697;28;20257;-75
2023/02/01 00:25:30;;;;;;;7.70;4.45;;;;;;;5.73;100.00;100898.09;5054265;28;20658;-75
2023/02/01 00:27:58;;;;;;;5.93;4.00;;;;;;;5.72;100.00;100890.94;5053754;28;20203;-77
2023/02/01 00:30:25;;;;;;;5.07;4.10;;;;;;;5.71;100.00;100876.72;5054227;28;20203;-77
2023/02/01 00:32:53;;;;;;;5.65;4.20;;;;;;;5.72;100.00;100885.59;5054567;28;20285;-75
2023/02/01 00:35:19;;;;;;;5.53;4.20;;;;;;;5.69;100.00;100877.66;5059246;28;20227;-75
2023/02/01 00:37:46;;;;;;;5.20;4.45;;;;;;;5.62;100.00;100880.44;5054852;28;20207;-75
2023/02/01 00:40:13;;;;;;;6.15;4.53;;;;;;;5.67;100.00;100883.00;5058141;28;20306;-76
2023/02/01 00:42:39;;;;;;;5.57;3.90;;;;;;;5.66;100.00;100885.75;5053560;28;20220;-75
2023/02/01 00:45:07;;;;;;;5.50;4.32;;;;;;;5.63;100.00;100884.88;5053578;28;20196;-75
2023/02/01 00:47:34;;;;;;;5.32;3.53;;;;;;;5.64;100.00;100878.63;5052758;28;20204;-75
2023/02/01 00:50:02;;;;;;;7.38;4.40;;;;;;;5.60;100.00;100868.88;5053401;28;20219;-77
2023/02/01 00:52:28;;;;;;;6.55;5.15;;;;;;;5.60;100.00;100854.66;5052876;28;20234;-75
2023/02/01 00:54:55;;;;;;;5.63;4.70;;;;;;;5.62;100.00;100864.41;5053240;28;20223;-77
2023/02/01 00:57:21;;;;;;;7.88;5.30;;;;;;;5.59;100.00;100852.91;5053635;28;20208;-77
2023/02/01 00:59:48;;;;;;;7.80;4.85;;;;;;;5.59;100.00;100856.44;5052565;28;20239;-76
2023/02/01 01:02:15;;;;;;;5.20;4.25;;;;;;;5.64;100.00;100867.06;5054268;28;20227;-76
2023/02/01 01:04:41;;;;;;;7.25;4.13;;;;;;;5.67;100.00;100876.78;5070562;28;20196;-75
2023/02/01 01:07:09;;;;;;;9.75;5.43;;;;;;;5.67;100.00;100877.66;5070007;28;20242;-75
2023/02/01 01:09:36;;;;;;;5.90;4.60;;;;;;;5.70;100.00;100879.41;5060947;28;20298;-75
2023/02/01 01:12:03;;;;;;;6.78;5.03;;;;;;;5.72;100.00;100888.28;5055444;28;20255;-76
2023/02/01 01:14:30;;;;;;;6.97;4.57;;;;;;;5.74;100.00;100879.31;5056312;28;20227;-76
2023/02/01 01:16:57;;;;;;;6.53;5.10;;;;;;;5.76;100.00;100881.97;5053832;28;20580;-76
2023/02/01 01:19:23;;;;;;;9.55;5.85;;;;;;;5.74;100.00;100889.13;5053499;28;20294;-76
2023/02/01 01:21:50;;;;;;;7.38;5.50;;;;;;;5.76;100.00;100879.31;5053021;28;20224;-75
2023/02/01 01:24:18;;;;;;;6.97;5.82;;;;;;;5.70;100.00;100871.38;5053549;28;20199;-75
2023/02/01 01:26:45;;;;;;;8.02;5.10;;;;;;;5.69;100.00;100869.63;5053369;28;20245;-76
2023/02/01 01:29:12;;;;;;;7.50;5.70;;;;;;;5.70;100.00;100866.03;5062441;28;20254;-76
2023/02/01 01:31:38;;;;;;;7.75;5.95;;;;;;;5.68;100.00;100865.22;5062137;28;20232;-75
2023/02/01 01:34:05;;;;;;;8.00;5.65;;;;;;;5.67;100.00;100874.13;5053986;28;20214;-76
2023/02/01 01:36:31;;;;;;;9.18;5.50;;;;;;;5.67;100.00;100868.78;5055178;28;20199;-75
2023/02/01 01:38:58;;;;;;;9.02;5.90;;;;;;;5.71;100.00;100866.03;5053159;28;20207;-76
2023/02/01 01:41:29;;;;;;;7.22;6.15;;;;;;;5.65;100.00;100863.44;5053146;28;20216;-76
2023/02/01 01:43:57;;;;;;;8.23;5.43;;;;;;;5.68;100.00;100852.72;5052887;28;20192;-74
2023/02/01 01:46:26;;;;;;;11.02;5.70;;;;;;;5.65;100.00;100844.75;5053196;28;20235;-76
2023/02/01 01:49:02;;;;;;;7.70;5.65;;;;;;;5.66;100.00;100849.19;5052672;28;20305;-75
2023/02/01 01:51:31;;;;;;;7.68;6.50;;;;;;;5.68;100.00;100843.84;5053274;28;20229;-76
2023/02/01 01:54:04;;;;;;;10.25;7.10;;;;;;;5.56;100.00;100842.25;5053084;28;20207;-75
2023/02/01 01:56:34;;;;;;;9.45;7.00;;;;;;;5.56;100.00;100843.16;5053186;28;20661;-74
2023/02/01 01:59:02;;;;;;;8.93;7.07;;;;;;;5.51;100.00;100845.00;5052860;28;20562;-75
2023/02/01 02:01:29;;;;;;;8.70;6.90;;;;;;;5.45;100.00;100845.13;5051561;28;20224;-74
2023/02/01 02:03:56;;;;;;;13.80;6.75;;;;;;;5.52;100.00;100846.78;5060117;28;20206;-75
2023/02/01 02:06:36;;;;;;;9.13;6.53;;;;;;;5.47;100.00;100829.03;5056853;28;20565;-75
2023/02/01 02:09:04;;;;;;;9.80;6.80;;;;;;;5.46;100.00;100825.50;5056167;28;20748;-77
2023/02/01 02:11:30;;;;;;;9.75;6.30;;;;;;;5.50;100.00;100816.53;5057107;28;20705;-76
2023/02/01 02:13:59;;;;;;;10.40;7.32;;;;;;;5.46;100.00;100801.47;5056773;28;20285;-75
2023/02/01 02:16:59;;;;;;;12.52;6.95;;;;;;;5.53;100.00;100796.88;5057144;28;20707;-75
2023/02/01 02:20:04;;;;;;;9.43;7.10;;;;;;;5.50;100.00;100815.66;5050703;28;20211;-75
2023/02/01 02:23:03;;;;;;;10.20;8.05;;;;;;;5.55;100.00;100814.66;5064185;28;20247;-74
2023/02/01 02:28:23;;;;;;;9.65;7.13;;;;;;;5.54;100.00;100801.31;5181491;22;20240;-74
2023/02/01 02:31:12;;;;;;;8.82;7.13;;;;;;;5.50;100.00;100812.97;5069850;28;20207;-74
2023/02/01 02:33:52;;;;;;;8.93;6.70;;;;;;;5.50;100.00;100811.19;5049329;28;20243;-75
2023/02/01 02:36:33;;;;;;;10.55;7.10;;;;;;;5.56;100.00;100805.75;5049260;28;20204;-74
2023/02/01 02:39:08;;;;;;;13.10;8.25;;;;;;;5.50;100.00;100813.84;5049410;28;20184;-76
2023/02/01 02:47:27;;;;;;;9.75;7.45;;;;;;;5.55;100.00;100829.81;5052265;28;20269;-76
2023/02/01 02:55:44;;;;;;;11.35;8.13;;;;;;;5.57;100.00;100820.84;5051582;28;20247;-75
2023/02/01 03:06:28;;;;;;;14.40;8.77;;;;;;;5.52;100.00;100808.50;5043036;28;20229;-77
2023/02/01 03:08:59;;;;;;;15.15;9.45;;;;;;;5.53;100.00;100805.78;5037774;28;20204;-75
2023/02/01 03:12:55;;;;;;;11.05;7.75;;;;;;;5.49;100.00;100809.41;5037125;28;20220;-77
2023/02/01 03:14:15;;;;;;;10.38;8.10;;;;;;;5.51;100.00;100812.06;5040435;28;20193;-74
2023/02/01 03:16:48;;;;;;;15.48;9.30;;;;;;;5.51;100.00;100802.25;5042158;28;20659;-75
2023/02/01 03:19:20;;;;;;;15.40;8.50;;;;;;;5.49;100.00;100805.88;5052847;28;20196;-76
2023/02/01 03:21:53;;;;;;;10.48;7.28;;;;;;;5.49;100.00;100796.06;5054361;28;20224;-76
2023/02/01 03:24:32;;;;;;;17.83;7.60;;;;;;;5.47;100.00;100794.31;5052716;28;20219;-75
2023/02/01 03:27:05;;;;;;;11.95;7.22;;;;;;;5.49;100.00;100789.84;5053335;28;20242;-74
2023/02/01 03:29:38;;;;;;;9.63;6.65;;;;;;;5.46;100.00;100798.78;5045093;28;20273;-74
2023/02/01 03:32:06;;;;;;;11.45;7.38;;;;;;;5.47;100.00;100792.53;5041964;28;20234;-74
2023/02/01 03:34:33;;;;;;;11.82;6.68;;;;;;;5.49;100.00;100785.38;5042503;28;20233;-75
2023/02/01 03:37:05;;;;;;;13.52;6.05;;;;;;;5.52;100.00;100779.97;5043048;28;20196;-74
2023/02/01 03:39:36;;;;;;;11.77;6.78;;;;;;;5.46;100.00;100800.59;5041413;28;20290;-74
2023/02/01 03:42:09;;;;;;;8.98;6.20;;;;;;;5.48;100.00;100791.63;5037527;28;20259;-74
2023/02/01 03:44:40;;;;;;;8.07;6.00;;;;;;;5.51;100.00;100785.34;5038192;28;20184;-74
2023/02/01 03:47:12;;;;;;;8.80;6.25;;;;;;;5.55;100.00;100792.41;5038195;28;20208;-74
2023/02/01 03:49:42;;;;;;;8.20;5.70;;;;;;;5.50;100.00;100779.13;5036939;28;20220;-73
2023/02/01 03:52:14;;;;;;;12.38;6.50;;;;;;;5.53;100.00;100781.72;5037524;28;20259;-75
2023/02/01 03:54:42;;;;;;;9.15;5.93;;;;;;;5.52;100.00;100777.31;5036804;28;20679;-73
2023/02/01 03:57:14;;;;;;;8.45;5.90;;;;;;;5.59;100.00;100784.28;5035015;28;20295;-74
2023/02/01 03:59:41;;;;;;;9.93;6.68;;;;;;;5.51;100.00;100775.53;5034548;28;20185;-75
2023/02/01 04:02:08;;;;;;;12.45;6.93;;;;;;;5.54;100.00;100767.47;5035095;28;20270;-74
2023/02/01 04:04:35;;;;;;;9.00;6.82;;;;;;;5.59;100.00;100778.09;5035374;28;20646;-75
2023/02/01 04:07:02;;;;;;;10.88;7.40;;;;;;;5.54;100.00;100778.16;5035580;28;20284;-74
2023/02/01 04:09:30;;;;;;;9.55;5.88;;;;;;;5.55;100.00;100766.56;5034540;28;20211;-74
2023/02/01 04:11:56;;;;;;;12.70;6.95;;;;;;;5.54;100.00;100778.16;5034871;28;20238;-73
2023/02/01 04:14:23;;;;;;;11.50;7.80;;;;;;;5.55;100.00;100779.03;5035215;28;20295;-74
2023/02/01 04:16:49;;;;;;;8.60;6.85;;;;;;;5.55;100.00;100779.91;5034790;28;20300;-73
2023/02/01 04:19:16;;;;;;;8.98;6.25;;;;;;;5.61;100.00;100773.59;5036175;28;20587;-73
2023/02/01 04:21:42;;;;;;;12.18;7.88;;;;;;;5.59;100.00;100788.78;5045504;28;20690;-75
2023/02/01 04:24:10;;;;;;;9.43;7.13;;;;;;;5.61;100.00;100787.81;5044587;28;20224;-74
2023/02/01 04:26:38;;;;;;;8.95;7.00;;;;;;;5.59;100.00;100765.59;5044576;28;20212;-75
2023/02/01 04:29:04;;;;;;;11.68;6.93;;;;;;;5.60;100.00;100769.13;5041230;28;20298;-73
2023/02/01 04:31:31;;;;;;;17.55;7.70;;;;;;;5.61;100.00;100766.44;5035317;28;20235;-73
2023/02/01 04:33:58;;;;;;;10.00;6.45;;;;;;;5.57;100.00;100770.09;5034270;28;20295;-74
2023/02/01 04:36:25;;;;;;;10.07;7.18;;;;;;;5.61;100.00;100773.59;5034232;28;20553;-73
2023/02/01 04:38:52;;;;;;;7.78;6.20;;;;;;;5.58;100.00;100779.84;5032772;28;20654;-73
2023/02/01 04:41:19;;;;;;;9.18;6.25;;;;;;;5.56;100.00;100775.44;5034153;28;20290;-73
2023/02/01 04:43:47;;;;;;;11.07;6.78;;;;;;;5.58;100.00;100781.66;5037511;28;20205;-72
2023/02/01 04:46:14;;;;;;;9.55;7.47;;;;;;;5.60;100.00;100774.47;5037342;28;20240;-73
2023/02/01 04:48:41;;;;;;;13.07;7.45;;;;;;;5.54;100.00;100778.16;5037666;28;20208;-74
2023/02/01 04:51:07;;;;;;;10.70;7.25;;;;;;;5.51;100.00;100775.53;5039441;28;20642;-73
2023/02/01 04:53:34;;;;;;;11.50;6.85;;;;;;;5.52;100.00;100768.41;5040588;28;20204;-73
2023/02/01 04:56:01;;;;;;;13.75;8.27;;;;;;;5.54;100.00;100779.94;5042980;28;20327;-75
2023/02/01 04:58:28;;;;;;;10.95;6.50;;;;;;;5.48;100.00;100762.25;5041138;28;20231;-74
2023/02/01 05:00:56;;;;;;;13.13;6.88;;;;;;;5.49;100.00;100760.44;5041720;28;20232;-72
2023/02/01 05:03:22;;;;;;;12.40;6.93;;;;;;;5.49;100.00;100766.66;5039837;28;20235;-75
2023/02/01 05:05:49;;;;;;;10.40;6.60;;;;;;;5.46;100.00;100761.38;5037278;28;20231;-74
2023/02/01 05:08:15;;;;;;;14.13;7.60;;;;;;;5.48;100.00;100750.69;5036746;28;20201;-75
2023/02/01 05:10:42;;;;;;;10.45;6.43;;;;;;;5.45;100.00;100762.31;5036786;28;20196;-75
2023/02/01 05:15:53;;;;;;;7.97;5.53;;;;;;;5.48;100.00;100754.22;5039881;28;20279;-76
2023/02/01 05:18:21;;;;;;;9.55;5.85;;;;;;;5.48;100.00;100746.22;5020127;28;20236;-75
2023/02/01 05:20:48;;;;;;;6.40;4.70;;;;;;;5.53;100.00;100751.47;5016892;28;20697;-75
2023/02/01 05:23:14;;;;;;;9.35;5.78;;;;;;;5.54;100.00;100745.19;5029744;28;20775;-75
2023/02/01 05:25:41;;;;;;;8.27;4.82;;;;;;;5.59;100.00;100741.53;5034970;28;20295;-75
2023/02/01 05:28:08;;;;;;;8.15;5.00;;;;;;;5.66;100.00;100741.44;5035074;28;20580;-73
2023/02/01 05:30:35;;;;;;;8.93;5.22;;;;;;;5.74;100.00;100745.69;5035146;28;20291;-75
2023/02/01 05:33:02;;;;;;;8.27;5.05;;;;;;;5.75;100.00;100757.28;5023066;28;20235;-76
2023/02/01 05:35:30;;;;;;;12.93;5.40;;;;;;;5.73;100.00;100759.97;5032776;28;20275;-75
2023/02/01 05:37:56;;;;;;;6.53;4.78;;;;;;;5.75;100.00;100758.16;5014943;28;20296;-75
2023/02/01 05:40:23;;;;;;;8.02;4.45;;;;;;;5.80;100.00;100750.03;5015914;28;20190;-76
2023/02/01 05:42:53;;;;;;;11.45;4.25;;;;;;;5.74;100.00;100764.41;5024401;28;20232;-76
2023/02/01 05:45:19;;;;;;;16.15;5.05;;;;;;;5.76;100.00;100759.03;5024564;28;20204;-76
2023/02/01 05:47:46;;;;;;;7.32;3.88;;;;;;;5.80;100.00;100756.25;5024484;28;20228;-76
2023/02/01 05:50:12;;;;;;;8.30;4.38;;;;;;;5.80;100.00;100766.09;5024770;28;20228;-75
2023/02/01 05:52:40;;;;;;;9.35;5.38;;;;;;;5.78;100.00;100757.22;5031033;28;20224;-73
2023/02/01 05:55:08;;;;;;;8.95;4.47;;;;;;;5.77;100.00;100751.00;5036847;28;20208;-75
2023/02/01 05:57:34;;;;;;;8.15;4.80;;;;;;;5.75;100.00;100760.84;5039517;28;20284;-73
2023/02/01 06:00:01;;;;;;;8.10;4.15;;;;;;;5.67;100.00;100764.56;5039483;28;20203;-74
2023/02/01 06:02:28;;;;;;;7.63;4.15;;;;;;;5.64;100.00;100763.72;5042288;28;20297;-75
2023/02/01 06:04:54;;;;;;;10.68;4.40;;;;;;;5.62;100.00;100768.19;5044342;28;20265;-76
2023/02/01 06:07:22;;;;;;;13.77;4.82;;;;;;;5.55;100.00;100757.66;5043826;28;20716;-75
2023/02/01 06:09:50;;;;;;;5.47;4.28;;;;;;;5.50;100.00;100752.41;5041062;28;20205;-75
2023/02/01 06:12:16;;;;;;;8.57;4.28;;;;;;;5.50;100.00;100748.88;5044416;28;20234;-75
2023/02/01 06:14:43;;;;;;;9.43;5.20;;;;;;;5.43;100.00;100764.13;5044375;28;20670;-75
2023/02/01 06:17:10;;;;;;;10.90;4.68;;;;;;;5.35;100.00;100763.38;5038497;28;20314;-76
2023/02/01 06:19:36;;;;;;;11.05;4.35;;;;;;;5.33;100.00;100752.72;5040782;28;20726;-74
2023/02/01 06:22:05;;;;;;;11.60;5.13;;;;;;;5.30;100.00;100757.25;5043042;28;20224;-74
2023/02/01 06:24:32;;;;;;;6.90;4.38;;;;;;;5.25;100.00;100748.44;5040836;28;20211;-74
2023/02/01 06:27:00;;;;;;;9.30;4.78;;;;;;;5.19;100.00;100757.44;5031374;28;20222;-74
2023/02/01 06:29:27;;;;;;;8.80;4.80;;;;;;;5.21;100.00;100769.84;5033839;28;20205;-74
2023/02/01 06:31:53;;;;;;;9.18;4.65;;;;;;;5.09;100.00;100769.16;5032316;28;20235;-75
2023/02/01 06:34:22;;;;;;;11.18;4.47;;;;;;;5.13;100.00;100766.44;5015652;28;20296;-75
2023/02/01 06:36:48;;;;;;;10.23;4.68;;;;;;;5.00;100.00;100767.56;5015506;28;20228;-76
2023/02/01 06:39:15;;;;;;;9.82;4.93;;;;;;;5.05;100.00;100762.13;5012781;28;20209;-73
2023/02/01 06:41:42;;;;;;;13.65;5.45;;;;;;;5.00;100.00;100762.22;5014113;28;20224;-73
2023/02/01 06:44:10;;;;;;;8.57;4.80;;;;;;;5.01;100.00;100758.63;5018411;28;20608;-76
2023/02/01 06:46:37;;;;;;;6.65;4.00;;;;;;;5.00;100.00;100760.41;5034006;28;20202;-76
2023/02/01 06:49:03;;;;;;;7.90;4.80;;;;;;;4.94;100.00;100756.97;5033941;28;20241;-75
2023/02/01 06:51:30;;;;;;;11.57;4.40;;;;;;;5.04;100.00;100757.69;5037894;28;20645;-75
2023/02/01 06:53:57;;;;;;;8.45;4.65;;;;;;;5.06;100.00;100762.09;5038042;28;20286;-74
2023/02/01 06:56:24;;;;;;;12.45;4.88;;;;;;;4.99;100.00;100771.97;5037972;28;20616;-76
2023/02/01 06:58:51;;;;;;;9.50;4.13;;;;;;;4.94;100.00;100773.84;5037109;28;20218;-74
2023/02/01 07:01:19;;;;;;;11.63;5.07;;;;;;;4.79;100.00;100768.75;5046105;28;20251;-75
2023/02/01 07:03:48;;;;;;;10.65;4.18;;;;;;;4.79;100.00;100774.09;5058331;28;20200;-74
2023/02/01 07:06:15;;;;;;;12.48;4.70;;;;;;;4.78;100.00;100770.56;5058200;28;20195;-75
2023/02/01 07:08:41;;;;;;;8.10;4.40;;;;;;;4.75;100.00;100759.06;5049915;28;20239;-75
2023/02/01 07:11:11;;;;;;;11.00;5.10;;;;;;;4.88;100.00;100757.94;5043448;28;20209;-75
2023/02/01 07:13:38;;;;;;;10.20;3.88;;;;;;;4.94;100.00;100743.63;5040104;28;20338;-74
2023/02/01 07:16:07;;;;;;;8.77;4.28;;;;;;;5.05;100.00;100755.00;5039620;28;20228;-75
2023/02/01 07:18:34;;;;;;;12.25;4.20;;;;;;;5.10;100.00;100758.47;5037860;28;20207;-74
2023/02/01 07:21:02;;;;;;;13.52;4.28;;;;;;;5.04;100.00;100755.00;5031398;28;20247;-73
2023/02/01 07:23:29;;;;;;;11.43;4.78;;;;;;;5.05;100.00;100764.81;5020118;28;20209;-74
2023/02/01 07:25:56;;;;;;;11.18;5.60;;;;;;;5.03;100.00;100750.59;5018980;28;20686;-77
2023/02/01 07:28:23;;;;;;;9.57;3.72;;;;;;;5.34;100.00;100754.47;5021153;28;20216;-74
2023/02/01 07:30:50;;;;;;;9.02;4.18;;;;;;;5.50;100.00;100747.06;5020411;28;20638;-75
2023/02/01 07:33:18;;;;;;;8.55;4.05;;;;;;;5.62;100.00;100753.97;5021075;28;20228;-74
2023/02/01 07:35:46;;;;;;;10.15;4.00;;;;;;;5.71;100.00;100756.44;5018771;28;20225;-76
2023/02/01 07:38:13;;;;;;;8.45;3.42;;;;;;;5.86;100.00;100755.28;5018601;28;20210;-75
2023/02/01 07:40:40;;;;;;;11.85;3.95;;;;;;;5.99;100.00;100758.59;5017824;28;20272;-76
2023/02/01 07:43:07;;;;;;;8.40;3.78;;;;;;;6.12;100.00;100769.91;5020638;28;20315;-76
2023/02/01 07:45:34;;;;;;;12.43;3.67;;;;;;;5.99;100.00;100770.19;5018133;28;20237;-74
2023/02/01 07:48:01;;;;;;;6.78;3.53;;;;;;;6.07;100.00;100778.03;5017910;28;20265;-75
2023/02/01 07:50:28;;;;;;;9.90;3.38;;;;;;;6.08;100.00;100786.94;5018022;28;20576;-76
2023/02/01 07:52:56;;;;;;;8.68;3.30;;;;;;;6.14;100.00;100794.84;5018406;28;20220;-74
2023/02/01 07:55:22;;;;;;;9.25;3.22;;;;;;;6.50;100.00;100794.97;5017640;28;20205;-76
2023/02/01 07:57:49;;;;;;;8.13;3.40;;;;;;;6.43;100.00;100795.09;5018062;28;20222;-76
2023/02/01 08:03:00;;;;;;;9.10;3.10;;;;;;;6.16;100.00;100804.59;5016687;28;20293;-75
2023/02/01 08:05:28;;;;;;;10.45;3.92;;;;;;;6.17;100.00;100803.69;5017618;28;20638;-75
2023/02/01 08:07:55;;;;;;;8.20;3.40;;;;;;;6.14;100.00;100797.50;5018589;28;20349;-76
2023/02/01 08:10:24;;;;;;;7.93;3.10;;;;;;;6.10;100.00;100785.13;5029786;28;20235;-76
2023/02/01 08:12:51;;;;;;;8.13;3.45;;;;;;;6.12;100.00;100797.53;5019044;28;20260;-76
2023/02/01 08:15:18;;;;;;;9.05;4.30;;;;;;;6.17;100.00;100801.03;5016357;28;20213;-76
2023/02/01 08:17:47;;;;;;;11.07;3.95;;;;;;;6.31;100.00;100818.53;5015827;28;20224;-75
2023/02/01 08:20:14;;;;;;;9.15;4.25;;;;;;;6.32;100.00;100818.53;5017115;28;20274;-78
2023/02/01 08:22:41;;;;;;;7.72;3.65;;;;;;;6.35;100.00;100817.56;5017547;28;20602;-75
2023/02/01 08:25:09;;;;;;;8.52;3.65;;;;;;;6.29;100.00;100804.31;5019587;28;20587;-74
2023/02/01 08:27:36;;;;;;;6.38;3.28;;;;;;;6.33;100.00;100817.63;5016276;28;20621;-76
2023/02/01 08:30:04;;;;;;;10.00;3.60;;;;;;;6.38;100.00;100815.72;5017490;28;20204;-76
2023/02/01 08:32:31;;;;;;;8.82;3.63;;;;;;;6.38;100.00;100823.75;5016521;28;20228;-76
2023/02/01 08:34:57;;;;;;;9.27;3.22;;;;;;;6.34;100.00;100816.69;5017640;28;20204;-74
2023/02/01 08:37:24;;;;;;;9.68;3.42;;;;;;;6.37;100.00;100823.78;5016978;28;20235;-76
2023/02/01 08:39:50;;;;;;;11.90;3.40;;;;;;;6.42;100.00;100828.13;5019313;28;20201;-75
2023/02/01 08:45:03;;;;;;;9.48;3.45;;;;;;;6.55;100.00;100825.19;5022142;28;20224;-75
2023/02/01 08:47:30;;;;;;;9.25;3.45;;;;;;;6.51;100.00;100829.69;5021445;28;20587;-73
2023/02/01 08:49:56;;;;;;;14.85;4.32;;;;;;;6.56;100.00;100834.97;5024057;28;20722;-73
2023/02/01 08:52:23;;;;;;;7.25;3.05;;;;;;;6.51;100.00;100834.19;5020711;28;20285;-76
2023/02/01 08:54:50;;;;;;;7.78;3.53;;;;;;;6.55;100.00;100839.44;5017678;28;20288;-76
2023/02/01 08:57:18;;;;;;;7.40;3.05;;;;;;;6.58;100.00;100830.44;5016487;28;20225;-76
2023/02/01 08:59:44;;;;;;;8.40;3.63;;;;;;;6.54;100.00;100818.06;5017017;28;20209;-75
2023/02/01 09:02:14;;;;;;;7.18;3.47;;;;;;;6.59;100.00;100827.75;5017201;28;20231;-75
2023/02/01 09:04:41;;;;;;;9.68;3.72;;;;;;;6.61;100.00;100809.88;5015164;28;20212;-76
2023/02/01 09:07:08;;;;;;;9.05;3.38;;;;;;;6.61;100.00;100811.66;5016254;28;20265;-74
2023/02/01 09:09:34;;;;;;;7.95;3.05;;;;;;;6.62;100.00;100821.44;5015817;28;20215;-76
2023/02/01 09:12:01;;;;;;;8.65;3.97;;;;;;;6.64;100.00;100823.16;5026322;28;20293;-74
2023/02/01 09:14:28;;;;;;;6.30;3.10;;;;;;;6.69;100.00;100823.06;5030819;28;20189;-75
2023/02/01 09:16:55;;;;;;;10.30;3.63;;;;;;;6.78;100.00;100830.00;5030151;28;20293;-75
2023/02/01 09:19:21;;;;;;;8.55;3.20;;;;;;;6.73;100.00;100834.59;5028530;28;20272;-75
2023/02/01 09:21:48;;;;;;;11.82;3.55;;;;;;;6.82;100.00;100835.25;5026262;28;20674;-75
2023/02/01 09:24:15;;;;;;;10.50;3.28;;;;;;;6.83;100.00;100838.84;5021040;28;20205;-76
2023/02/01 09:26:41;;;;;;;10.32;3.70;;;;;;;6.84;100.00;100851.28;5016001;28;20233;-76
2023/02/01 09:29:10;;;;;;;8.93;3.40;;;;;;;6.86;100.00;100853.00;5014279;28;20678;-76
2023/02/01 09:34:14;;;;;;;6.78;3.17;;;;;;;6.90;100.00;100861.88;5065769;28;20220;-77
2023/02/01 09:36:41;;;;;;;8.50;3.50;;;;;;;6.92;100.00;100864.50;5068911;28;20250;-78
2023/02/01 09:39:07;;;;;;;15.00;3.10;;;;;;;6.94;100.00;100866.22;5068356;28;20199;-79
2023/02/01 09:41:46;;;;;;;5.75;2.88;;;;;;;6.89;100.00;100873.47;5069002;28;20251;-81
2023/02/01 09:44:31;;;;;;;8.80;3.40;;;;;;;6.96;100.00;100869.75;5049451;28;20268;-80
2023/02/01 09:46:59;;;;;;;6.30;2.60;;;;;;;6.97;100.00;100870.66;5049031;28;20185;-82
2023/02/01 09:49:31;;;;;;;8.13;3.10;;;;;;;6.97;100.00;100886.72;5048535;28;20223;-79
2023/02/01 09:52:02;;;;;;;8.00;3.10;;;;;;;7.00;100.00;100882.16;5044842;28;20259;-79
2023/02/01 09:54:35;;;;;;;8.43;2.60;;;;;;;7.01;100.00;100883.94;5042706;28;20246;-79
2023/02/01 09:57:09;;;;;;;6.05;3.17;;;;;;;6.99;100.00;100875.06;5043103;28;20292;-79
2023/02/01 09:59:41;;;;;;;6.65;3.17;;;;;;;7.09;100.00;100865.88;5044532;28;20211;-78
2023/02/01 10:02:15;;;;;;;7.45;3.10;;;;;;;7.12;100.00;100878.28;5048941;28;20255;-80
2023/02/01 10:04:43;;;;;;;10.13;3.30;;;;;;;7.14;100.00;100876.47;5046133;28;20199;-79
2023/02/01 10:07:24;;;;;;;8.10;4.00;;;;;;;7.15;100.00;100869.34;5045436;28;20272;-80
2023/02/01 10:10:01;;;;;;;9.25;3.38;;;;;;;7.10;100.00;100861.41;5046369;28;20208;-78
2023/02/01 10:12:52;;;;;;;7.32;3.13;;;;;;;7.14;100.00;100859.53;5052755;28;20224;-77
2023/02/01 10:15:31;;;;;;;5.03;2.30;;;;;;;7.14;100.00;100855.03;5052260;28;20236;-76
2023/02/01 10:18:20;;;;;;;12.00;2.92;;;;;;;7.14;100.00;100846.13;5051230;28;20296;-78
2023/02/01 10:20:58;;;;;;;7.72;2.42;;;;;;;7.12;100.00;100846.16;5051377;28;20276;-81
2023/02/01 10:23:44;;;;;;;6.78;3.03;;;;;;;7.13;100.00;100833.66;5044866;28;20260;-79
2023/02/01 10:26:19;;;;;;;10.52;3.30;;;;;;;7.12;100.00;100850.63;5046873;28;20283;-79
2023/02/01 10:28:49;;;;;;;14.65;3.67;;;;;;;7.15;100.00;100837.19;5046742;28;20184;-79
2023/02/01 10:31:17;;;;;;;6.50;3.03;;;;;;;7.14;100.00;100841.66;5046748;28;20254;-79
2023/02/01 10:33:47;;;;;;;9.77;2.92;;;;;;;7.17;100.00;100838.00;5049127;28;20299;-78
2023/02/01 10:36:20;;;;;;;8.77;4.00;;;;;;;7.17;100.00;100827.28;5049772;28;20245;-79
2023/02/01 10:38:47;;;;;;;12.48;3.70;;;;;;;7.21;100.00;100837.03;5050237;28;20197;-79
2023/02/01 10:41:17;;;;;;;5.28;2.78;;;;;;;7.15;100.00;100843.44;5049734;28;20520;-79
2023/02/01 10:43:46;;;;;;;8.38;3.28;;;;;;;7.14;100.00;100830.94;5051421;28;20251;-79
2023/02/01 10:46:13;;;;;;;5.47;3.10;;;;;;;7.08;100.00;100837.34;5055082;28;20288;-78
2023/02/01 10:48:40;;;;;;;8.18;3.00;;;;;;;7.08;100.00;100831.97;5055029;28;20287;-78
2023/02/01 10:51:14;;;;;;;7.80;2.97;;;;;;;7.11;100.00;100839.06;5053595;28;20201;-77
2023/02/01 10:53:45;;;;;;;3.90;2.50;;;;;;;7.06;100.00;100824.91;5056606;28;20292;-77
2023/02/01 10:56:13;;;;;;;6.60;2.67;;;;;;;7.05;100.00;100826.66;5055410;28;20262;-77
2023/02/01 10:58:45;;;;;;;8.45;3.03;;;;;;;7.09;100.00;100825.69;5054711;28;20248;-77
2023/02/01 11:01:18;;;;;;;8.20;3.38;;;;;;;7.05;100.00;100809.72;5051109;28;20199;-79
2023/02/01 11:03:46;;;;;;;8.75;2.90;;;;;;;7.10;100.00;100813.19;5048570;28;20227;-77
2023/02/01 11:06:22;;;;;;;6.72;2.95;;;;;;;7.06;100.00;100819.53;5052661;28;20205;-78
2023/02/01 11:08:52;;;;;;;12.60;3.30;;;;;;;7.07;100.00;100821.28;5047551;28;20275;-78
2023/02/01 11:11:20;;;;;;;7.75;2.80;;;;;;;7.07;100.00;100818.63;5050139;28;20299;-80
2023/02/01 11:13:54;;;;;;;8.85;3.13;;;;;;;7.03;100.00;100807.13;5046537;28;20296;-79
2023/02/01 11:16:21;;;;;;;9.73;3.47;;;;;;;7.07;100.00;100807.91;5047888;28;20486;-79
2023/02/01 11:18:54;;;;;;;4.70;1.98;;;;;;;7.08;100.00;100812.34;5049065;28;20242;-80
2023/02/01 11:21:22;;;;;;;8.20;3.20;;;;;;;7.10;100.00;100811.41;5047849;28;20216;-80
2023/02/01 11:23:50;;;;;;;9.30;3.70;;;;;;;7.10;100.00;100800.69;5048403;28;20235;-79
2023/02/01 11:26:23;;;;;;;9.70;3.00;;;;;;;7.12;100.00;100805.97;5050946;28;20325;-79
2023/02/01 11:28:54;;;;;;;8.65;2.95;;;;;;;7.09;100.00;100798.91;5048323;28;20202;-76
2023/02/01 11:31:23;;;;;;;5.70;2.95;;;;;;;7.18;100.00;100811.19;5047380;28;20601;-77
2023/02/01 11:33:53;;;;;;;8.80;2.65;;;;;;;7.16;100.00;100796.94;5046724;28;20237;-78
2023/02/01 11:36:25;;;;;;;13.10;3.25;;;;;;;7.19;100.00;100799.56;5046816;28;20208;-78
2023/02/01 11:39:07;;;;;;;13.65;2.65;;;;;;;7.25;100.00;100794.03;5049384;28;20292;-80
2023/02/01 11:41:35;;;;;;;8.15;2.60;;;;;;;7.27;100.00;100789.53;5045419;28;20612;-77
2023/02/01 11:44:03;;;;;;;6.82;2.65;;;;;;;7.31;100.00;100784.97;5046621;28;20209;-79
2023/02/01 11:46:32;;;;;;;8.15;2.63;;;;;;;7.29;100.00;100792.19;5049118;28;20233;-79
2023/02/01 11:49:20;;;;;;;5.43;2.08;;;;;;;7.25;100.00;100794.03;5049404;28;20228;-78
2023/02/01 11:51:55;;;;;;;5.35;2.60;;;;;;;7.27;100.00;100786.84;5053544;28;20240;-77
2023/02/01 11:54:38;;;;;;;8.45;1.88;;;;;;;7.24;100.00;100786.06;5056916;28;20408;-78
2023/02/01 11:57:17;;;;;;;15.05;3.95;;;;;;;7.26;100.00;100790.47;5057930;28;20277;-76
2023/02/01 12:00:12;;;;;;;7.03;2.50;;;;;;;7.25;100.00;100787.81;5058114;28;20188;-78
2023/02/01 12:03:10;;;;;;;10.75;3.53;;;;;;;7.27;100.00;100773.44;5059220;28;20221;-74
2023/02/01 12:05:48;;;;;;;11.23;3.55;;;;;;;7.26;100.00;100782.41;4960228;29;20195;-76